Time;durP1;ratioP1;P1;durP2;ratioP2;P2;SDS_P1;SDS_P2;PMS_P1;PMS_P2;Temp;Humidity;BMP_temperature;BMP_pressure;BME280_temperature;BME280_humidity;BME280_pressure;Samples;Min_cycle;Max_cycle;Signal;HPM_P1;HPM_P2
2022/01/20 00:03:54;;;;;;;15.50;9.60;;;;;;;4.84;45.59;102258.20;1686319;85;21066;-51
2022/01/20 00:07:06;;;;;;;14.33;9.48;;;;;;;4.82;45.68;102253.42;1686628;85;21018;-51
2022/01/20 00:28:14;;;;;;;15.68;10.40;;;;;;;4.69;45.92;102226.89;1676352;86;21039;-51
2022/01/20 00:38:24;;;;;;;16.25;8.68;;;;;;;4.60;45.84;102215.04;1631459;87;21963;-51
2022/01/20 00:40:51;;;;;;;18.12;9.43;;;;;;;4.58;45.86;102216.70;1631725;87;21099;-51
2022/01/20 00:43:18;;;;;;;17.60;8.75;;;;;;;4.57;45.83;102209.83;1631733;87;21020;-51
2022/01/20 00:45:46;;;;;;;14.53;8.73;;;;;;;4.56;45.93;102208.06;1676156;84;20989;-51
2022/01/20 00:48:12;;;;;;;16.10;9.58;;;;;;;4.54;45.99;102201.12;1631676;88;21102;-51
2022/01/20 00:50:39;;;;;;;14.33;8.50;;;;;;;4.53;45.99;102200.27;1675976;85;21027;-51
2022/01/20 00:53:07;;;;;;;14.23;8.58;;;;;;;4.53;46.03;102201.97;1675834;85;21068;-51
2022/01/20 00:55:33;;;;;;;14.45;8.95;;;;;;;4.53;46.07;102194.23;1631759;88;21060;-51
2022/01/20 00:58:00;;;;;;;11.48;7.85;;;;;;;4.52;46.08;102195.93;1690691;83;21041;-51
2022/01/20 01:00:28;;;;;;;16.93;9.45;;;;;;;4.51;46.24;102191.62;1715473;82;21060;-51
2022/01/20 01:02:56;;;;;;;13.88;8.80;;;;;;;4.51;46.22;102177.86;1710575;82;21018;-51
2022/01/20 01:05:24;;;;;;;15.00;8.83;;;;;;;4.50;46.34;102174.41;1708953;82;21458;-51
2022/01/20 01:07:53;;;;;;;17.15;8.45;;;;;;;4.50;46.42;102167.95;1709549;82;21486;-51
2022/01/20 01:10:26;;;;;;;16.42;8.53;;;;;;;4.51;46.40;102164.97;1709614;82;21028;-51
2022/01/20 01:12:58;;;;;;;12.58;7.47;;;;;;;4.49;46.50;102152.02;1695639;83;21565;-51
2022/01/20 01:15:29;;;;;;;11.08;7.78;;;;;;;4.49;46.59;102153.75;1686080;83;21838;-51
2022/01/20 01:23:09;;;;;;;11.50;6.87;;;;;;;4.48;46.82;102158.03;1686262;85;21074;-51
2022/01/20 01:25:35;;;;;;;11.65;7.28;;;;;;;4.49;46.87;102146.02;1686741;85;21025;-51
2022/01/20 01:28:02;;;;;;;11.15;7.25;;;;;;;4.49;46.82;102144.29;1686257;85;21082;-51
2022/01/20 01:33:10;;;;;;;;;;;;;;;4.47;47.06;102129.64;1658697;86;21539;-51
2022/01/20 01:35:40;;;;;;;10.55;6.33;;;;;;;4.48;47.19;102129.67;1657215;86;20104;-51
2022/01/20 01:40:35;;;;;;;8.53;5.60;;;;;;;4.50;47.55;102112.54;1658304;86;21082;-51
2022/01/20 01:43:06;;;;;;;10.45;5.40;;;;;;;4.51;47.61;102107.86;1651209;86;21062;-51
2022/01/20 01:45:35;;;;;;;11.60;5.65;;;;;;;4.53;47.71;102109.17;1657516;86;21072;-51
2022/01/20 01:48:03;;;;;;;9.30;5.85;;;;;;;4.56;47.82;102099.80;1590161;89;21111;-51
2022/01/20 01:50:30;;;;;;;12.10;6.12;;;;;;;4.59;47.92;102089.58;1560954;92;21020;-51
2022/01/20 01:52:58;;;;;;;11.50;6.28;;;;;;;4.63;48.12;102079.79;1545994;92;21534;-51
2022/01/20 01:55:25;;;;;;;9.98;6.60;;;;;;;4.67;48.28;102080.31;1546215;93;21095;-51
2022/01/20 01:57:51;;;;;;;11.00;6.53;;;;;;;4.72;48.48;102079.10;1545948;92;21097;-51
2022/01/20 02:00:20;;;;;;;12.18;7.25;;;;;;;4.73;48.80;102071.84;1546697;92;21489;-51
2022/01/20 02:02:49;;;;;;;12.75;7.17;;;;;;;4.77;49.09;102068.08;1547646;92;21094;-51
2022/01/20 02:05:19;;;;;;;13.60;7.55;;;;;;;4.80;49.44;102055.23;1544913;92;21075;-51
2022/01/20 02:08:26;;;;;;;11.73;7.10;;;;;;;4.84;49.60;102050.59;1477361;97;21155;-51
2022/01/20 02:18:51;;;;;;;12.68;6.90;;;;;;;4.99;50.82;102042.33;1529580;92;21162;-51
2022/01/20 02:21:50;;;;;;;11.73;6.95;;;;;;;5.02;51.03;102040.23;1565148;91;21099;-51
2022/01/20 02:24:18;;;;;;;12.43;7.25;;;;;;;5.07;51.08;102041.22;1564442;91;21106;-52
2022/01/20 02:26:44;;;;;;;9.58;6.70;;;;;;;5.10;51.01;102042.55;1561827;90;21544;-51
2022/01/20 02:29:13;;;;;;;12.20;6.47;;;;;;;5.10;50.95;102038.69;1601367;88;21086;-51
2022/01/20 02:31:40;;;;;;;11.90;6.50;;;;;;;5.11;50.85;102031.41;1598004;90;21071;-51
2022/01/20 02:34:12;;;;;;;10.53;6.37;;;;;;;5.12;50.72;102024.11;1598000;90;21086;-51
2022/01/20 02:36:43;;;;;;;10.50;6.30;;;;;;;5.11;50.74;102017.22;1595093;89;21089;-52
2022/01/20 02:39:29;;;;;;;7.87;5.20;;;;;;;5.10;50.60;102010.30;1589429;89;21041;-51
2022/01/20 02:47:13;;;;;;;8.13;4.78;;;;;;;5.14;49.86;102009.53;1632620;87;21566;-51
2022/01/20 02:49:39;;;;;;;9.40;4.95;;;;;;;5.15;49.58;102008.30;1638349;87;21050;-51
2022/01/20 02:52:06;;;;;;;8.18;4.87;;;;;;;5.17;49.38;102005.73;1634850;87;21117;-51
2022/01/20 02:54:34;;;;;;;6.20;4.42;;;;;;;5.21;49.17;102002.38;1630583;87;21511;-51
2022/01/20 02:57:01;;;;;;;6.60;4.62;;;;;;;5.24;48.92;101992.09;1635950;87;21055;-51
2022/01/20 02:59:28;;;;;;;6.08;4.42;;;;;;;5.28;48.61;101988.73;1636141;87;21068;-51
2022/01/20 03:01:54;;;;;;;8.20;4.90;;;;;;;5.30;48.39;101976.73;1614384;85;21015;-51
2022/01/20 03:04:25;;;;;;;11.20;5.80;;;;;;;5.32;48.17;101974.62;1660448;85;21066;-51
2022/01/20 03:06:50;;;;;;;7.22;4.80;;;;;;;5.33;47.90;101965.19;1662374;85;21066;-51
2022/01/20 03:09:16;;;;;;;8.18;5.40;;;;;;;5.34;47.67;101962.63;1662503;85;21078;-51
2022/01/20 03:11:42;;;;;;;11.03;5.80;;;;;;;5.33;47.44;101954.45;1664892;85;21097;-51
2022/01/20 03:14:14;;;;;;;12.30;5.45;;;;;;;5.31;47.26;101957.84;1660087;85;21046;-51
2022/01/20 03:16:41;;;;;;;10.13;5.50;;;;;;;5.29;47.26;101949.20;1672413;85;21070;-51
2022/01/20 03:19:07;;;;;;;7.60;5.42;;;;;;;5.25;47.32;101948.28;1662781;85;21107;-51
2022/01/20 03:21:34;;;;;;;8.65;5.53;;;;;;;5.23;47.28;101942.63;1658212;86;21059;-51
2022/01/20 03:24:02;;;;;;;6.97;5.03;;;;;;;5.22;47.17;101942.17;1659491;86;21059;-51
2022/01/20 03:26:29;;;;;;;8.58;4.70;;;;;;;5.20;46.92;101942.56;1696919;82;21514;-51
2022/01/20 03:28:57;;;;;;;7.05;5.20;;;;;;;5.19;46.72;101944.30;1747941;81;21522;-51
2022/01/20 03:31:25;;;;;;;8.55;5.17;;;;;;;5.18;46.53;101947.70;1732933;81;21066;-53
2022/01/20 03:33:52;;;;;;;7.85;5.67;;;;;;;5.15;46.31;101946.38;1740181;81;21018;-51
2022/01/20 03:36:20;;;;;;;7.97;5.30;;;;;;;5.13;46.23;101942.02;1709585;83;21545;-52
2022/01/20 03:38:57;;;;;;;7.67;5.50;;;;;;;5.12;46.01;101944.12;1740169;82;21581;-52
2022/01/20 03:41:24;;;;;;;9.33;5.55;;;;;;;5.10;45.86;101936.78;1707896;83;21572;-52
2022/01/20 03:43:53;;;;;;;7.72;5.67;;;;;;;5.08;45.83;101938.05;1741354;81;21029;-52
2022/01/20 03:46:20;;;;;;;7.50;5.78;;;;;;;5.05;45.82;101930.68;1741152;81;21022;-52
2022/01/20 03:48:51;;;;;;;9.80;6.12;;;;;;;5.02;45.77;101928.03;1687871;83;21038;-51
2022/01/20 03:51:22;;;;;;;8.50;6.00;;;;;;;4.98;45.80;101923.65;1702836;83;21006;-51
2022/01/20 03:53:51;;;;;;;10.48;6.78;;;;;;;4.97;45.76;101919.34;1684248;85;21119;-51
2022/01/20 03:56:18;;;;;;;8.00;6.28;;;;;;;4.95;45.71;101927.91;1684162;85;21041;-51
2022/01/20 03:58:50;;;;;;;8.73;5.75;;;;;;;4.93;45.68;101919.27;1721645;82;21013;-52
2022/01/20 04:01:17;;;;;;;9.60;6.92;;;;;;;4.91;45.72;101914.50;1720860;83;21116;-51
2022/01/20 04:03:46;;;;;;;6.78;5.55;;;;;;;4.90;45.71;101911.46;1666554;85;21029;-51
2022/01/20 04:06:14;;;;;;;9.05;5.85;;;;;;;4.91;45.76;101902.02;1666736;85;21029;-51
2022/01/20 04:08:44;;;;;;;7.62;5.78;;;;;;;4.93;45.73;101905.09;1666817;85;21041;-51
2022/01/20 04:11:18;;;;;;;8.85;6.22;;;;;;;4.93;45.78;101896.06;1666891;85;21040;-51
2022/01/20 04:13:45;;;;;;;9.68;6.22;;;;;;;4.93;45.85;101890.91;1666845;85;21021;-51
2022/01/20 04:16:21;;;;;;;9.55;6.12;;;;;;;4.94;45.88;101886.63;1663802;86;21065;-51
2022/01/20 04:18:53;;;;;;;8.58;5.80;;;;;;;4.95;46.01;101881.48;1590015;89;21106;-51
2022/01/20 04:21:22;;;;;;;9.43;6.20;;;;;;;4.97;46.02;101878.08;1589567;89;21151;-51
2022/01/20 04:23:49;;;;;;;10.72;6.97;;;;;;;4.96;46.06;101884.94;1589702;89;21063;-51
2022/01/20 04:26:15;;;;;;;10.50;7.40;;;;;;;4.97;46.11;101875.50;1589545;89;21119;-51
2022/01/20 04:28:42;;;;;;;12.55;6.97;;;;;;;4.97;46.08;101873.77;1589654;89;21035;-51
2022/01/20 04:31:09;;;;;;;9.88;7.10;;;;;;;4.96;46.32;101870.75;1589602;89;21527;-51
2022/01/20 04:33:36;;;;;;;13.00;6.65;;;;;;;4.97;46.56;101879.38;1589509;89;21059;-51
2022/01/20 04:36:04;;;;;;;10.88;7.30;;;;;;;4.96;46.71;101868.17;1589596;89;21027;-51
2022/01/20 04:38:32;;;;;;;10.05;6.15;;;;;;;4.97;46.99;101867.77;1589665;89;21098;-51
2022/01/20 04:40:59;;;;;;;12.50;6.95;;;;;;;4.98;47.24;101866.91;1596973;89;21075;-51
2022/01/20 04:43:26;;;;;;;10.63;6.30;;;;;;;5.01;47.36;101867.82;1607818;89;21021;-52
2022/01/20 04:48:30;;;;;;;9.40;6.40;;;;;;;5.02;47.45;101863.54;1551737;92;21054;-51
2022/01/20 04:59:07;;;;;;;12.75;7.00;;;;;;;5.06;47.72;101863.63;1585823;90;21515;-51
2022/01/20 05:01:34;;;;;;;11.05;7.25;;;;;;;5.06;47.81;101860.17;1586218;90;21556;-51
2022/01/20 05:04:04;;;;;;;9.33;6.50;;;;;;;5.06;47.88;101867.91;1583340;90;21011;-51
2022/01/20 05:06:44;;;;;;;9.45;7.42;;;;;;;5.05;47.95;101861.88;1527013;93;21117;-51
2022/01/20 05:09:16;;;;;;;10.88;7.12;;;;;;;5.05;47.93;101864.91;1507950;94;21074;-51
2022/01/20 05:11:43;;;;;;;13.30;8.18;;;;;;;5.07;47.93;101849.03;1524292;93;21097;-51
2022/01/20 05:14:07;;;;;;;11.73;6.67;;;;;;;5.06;47.94;101842.11;1526834;93;21546;-51
2022/01/20 05:16:34;;;;;;;8.43;7.03;;;;;;;5.06;47.98;101839.53;1576569;91;21554;-51
2022/01/20 05:19:01;;;;;;;10.35;7.22;;;;;;;5.06;47.99;101838.25;1590411;90;21626;-51
2022/01/20 05:21:27;;;;;;;10.95;7.75;;;;;;;5.05;48.17;101842.97;1593007;89;21605;-52
2022/01/20 05:23:54;;;;;;;13.32;10.72;;;;;;;5.04;48.40;101841.22;1572565;90;20992;-51
2022/01/20 05:26:21;;;;;;;10.88;8.55;;;;;;;5.04;48.37;101839.93;1556268;91;22623;-51
2022/01/20 05:28:47;;;;;;;11.53;7.37;;;;;;;5.03;48.54;101835.62;1548811;92;21547;-52
2022/01/20 05:31:14;;;;;;;11.33;7.90;;;;;;;5.01;48.57;101832.16;1556424;91;21090;-51
2022/01/20 05:33:52;;;;;;;10.65;7.55;;;;;;;5.02;48.65;101836.45;1546537;91;21091;-51
2022/01/20 05:36:18;;;;;;;11.12;7.28;;;;;;;5.02;48.60;101833.47;1556618;91;21098;-51
2022/01/20 05:38:45;;;;;;;13.00;7.30;;;;;;;5.04;48.53;101836.06;1556503;91;21083;-51
2022/01/20 05:41:12;;;;;;;12.37;7.37;;;;;;;5.03;48.43;101836.92;1556399;91;21039;-51
2022/01/20 05:43:39;;;;;;;9.50;6.50;;;;;;;5.02;48.49;101832.59;1552131;91;21079;-53
2022/01/20 05:46:06;;;;;;;9.10;6.95;;;;;;;4.98;48.49;101833.37;1574040;91;21063;-51
2022/01/20 05:48:35;;;;;;;9.40;7.37;;;;;;;5.00;48.52;101831.69;1603524;89;21578;-51
2022/01/20 05:51:19;;;;;;;10.05;7.58;;;;;;;5.02;48.35;101827.43;1589297;89;21116;-51
2022/01/20 05:53:46;;;;;;;11.30;6.87;;;;;;;5.01;48.51;101824.42;1603525;89;21055;-51
2022/01/20 05:56:12;;;;;;;11.28;7.12;;;;;;;5.02;48.46;101827.43;1598373;89;21622;-51
2022/01/20 05:58:40;;;;;;;10.60;7.67;;;;;;;5.01;48.50;101822.68;1594186;87;21591;-51
2022/01/20 06:01:08;;;;;;;9.90;6.80;;;;;;;5.01;48.50;101823.97;1588406;89;21035;-51
2022/01/20 06:03:38;;;;;;;13.62;7.97;;;;;;;5.02;48.68;101822.27;1695335;82;21444;-51
2022/01/20 06:06:08;;;;;;;;;;;;;;;5.02;48.58;101817.11;1702987;82;20999;-51
2022/01/20 06:08:35;;;;;;;11.83;7.83;;;;;;;5.01;48.68;101826.55;1701274;82;20138;-51
2022/01/20 06:11:03;;;;;;;9.18;6.97;;;;;;;5.00;48.79;101814.92;1702561;82;21554;-51
2022/01/20 06:13:30;;;;;;;10.60;7.42;;;;;;;5.01;48.84;101816.23;1698881;84;21530;-51
2022/01/20 06:15:57;;;;;;;9.03;7.42;;;;;;;5.05;48.81;101819.76;1690532;82;22060;-51
2022/01/20 06:18:23;;;;;;;10.80;7.40;;;;;;;5.09;48.89;101815.10;1706241;82;21081;-51
2022/01/20 06:20:55;;;;;;;11.08;7.30;;;;;;;5.16;48.81;101807.89;1714329;82;21058;-51
2022/01/20 06:23:22;;;;;;;10.68;7.15;;;;;;;5.24;48.72;101799.44;1712446;82;21065;-51
2022/01/20 06:25:50;;;;;;;10.98;7.28;;;;;;;5.36;48.80;101803.92;1712248;82;21026;-51
2022/01/20 06:28:17;;;;;;;9.43;7.67;;;;;;;5.50;48.43;101799.87;1713093;83;21085;-51
2022/01/20 06:30:44;;;;;;;9.75;6.97;;;;;;;5.66;48.03;101796.67;1714024;82;21074;-51
2022/01/20 06:33:10;;;;;;;12.03;7.97;;;;;;;5.78;48.00;101790.38;1714076;82;21046;-51
2022/01/20 06:35:39;;;;;;;12.23;8.10;;;;;;;5.92;47.54;101785.43;1712664;82;21022;-51
2022/01/20 06:38:05;;;;;;;16.07;9.43;;;;;;;6.05;47.34;101788.22;1711508;82;21006;-51
2022/01/20 06:40:32;;;;;;;13.62;8.28;;;;;;;6.15;47.13;101781.02;1710632;82;21007;-51
2022/01/20 06:43:00;;;;;;;14.55;7.87;;;;;;;6.24;47.03;101778.98;1711169;82;21026;-51
2022/01/20 06:45:26;;;;;;;12.75;7.33;;;;;;;6.31;46.88;101775.18;1711359;82;21555;-51
2022/01/20 06:48:04;;;;;;;11.08;7.85;;;;;;;6.37;46.77;101771.78;1655356;86;21030;-51
2022/01/20 06:50:32;;;;;;;9.25;7.33;;;;;;;6.39;46.69;101772.67;1640420;87;21044;-51
2022/01/20 06:52:59;;;;;;;13.53;7.90;;;;;;;6.40;46.82;101775.72;1640181;87;21031;-51
2022/01/20 06:55:25;;;;;;;17.52;8.40;;;;;;;6.35;46.91;101778.66;1653840;86;21087;-51
2022/01/20 06:57:52;;;;;;;12.37;9.15;;;;;;;6.37;47.06;101779.13;1624551;88;21026;-51
2022/01/20 07:00:21;;;;;;;13.98;9.68;;;;;;;6.35;47.08;101779.53;1696208;84;20967;-54
2022/01/20 07:02:50;;;;;;;14.73;8.95;;;;;;;6.34;47.14;101775.23;1694820;84;20994;-51
2022/01/20 07:05:19;;;;;;;13.15;9.50;;;;;;;6.32;47.27;101772.17;1701408;84;21066;-51
2022/01/20 07:07:47;;;;;;;16.23;11.93;;;;;;;6.24;47.45;101768.22;1700284;84;21058;-51
2022/01/20 07:10:19;;;;;;;14.58;10.08;;;;;;;6.21;47.15;101765.59;1698389;84;21082;-51
2022/01/20 07:12:47;;;;;;;10.68;8.08;;;;;;;6.20;47.07;101756.08;1684170;84;21497;-51
2022/01/20 07:15:15;;;;;;;10.43;8.25;;;;;;;6.20;46.86;101747.48;1699931;84;21554;-51
2022/01/20 07:17:42;;;;;;;13.80;8.58;;;;;;;6.21;46.62;101743.62;1691565;84;21026;-51
2022/01/20 07:20:11;;;;;;;11.60;7.87;;;;;;;6.22;46.47;101736.29;1698205;84;21070;-51
2022/01/20 07:22:39;;;;;;;13.03;8.73;;;;;;;6.25;46.29;101729.88;1688503;84;21047;-51
2022/01/20 07:25:07;;;;;;;11.20;7.60;;;;;;;6.24;46.09;101731.16;1691818;84;21558;-51
2022/01/20 07:27:48;;;;;;;10.50;8.00;;;;;;;6.24;45.97;101737.20;1688570;84;21067;-51
2022/01/20 07:30:15;;;;;;;14.58;9.35;;;;;;;6.24;45.97;101732.04;1693435;84;21590;-51
2022/01/20 07:32:42;;;;;;;28.25;15.72;;;;;;;6.24;45.95;101735.92;1643485;86;21118;-52
2022/01/20 07:35:09;;;;;;;23.52;13.05;;;;;;;6.26;46.14;101734.22;1617093;87;21153;-51
2022/01/20 07:37:35;;;;;;;20.45;12.07;;;;;;;6.28;46.31;101726.05;1642041;87;21081;-51
2022/01/20 07:40:04;;;;;;;17.45;10.70;;;;;;;6.31;46.48;101729.95;1638245;87;21110;-51
2022/01/20 07:42:31;;;;;;;15.38;9.53;;;;;;;6.34;46.64;101733.88;1633694;87;21066;-51
2022/01/20 07:45:11;;;;;;;13.68;9.05;;;;;;;6.37;46.90;101735.59;1692724;82;21051;-52
2022/01/20 07:47:42;;;;;;;14.18;10.38;;;;;;;6.40;47.07;101724.89;1692739;82;21554;-51
2022/01/20 07:50:09;;;;;;;12.75;9.40;;;;;;;6.41;47.29;101727.90;1684703;84;21506;-52
2022/01/20 07:52:37;;;;;;;15.85;11.93;;;;;;;6.43;47.50;101721.02;1702389;82;21101;-51
2022/01/20 07:55:06;;;;;;;16.80;10.48;;;;;;;6.47;47.74;101715.03;1700134;82;21506;-51
2022/01/20 07:57:33;;;;;;;17.55;10.90;;;;;;;6.52;47.99;101705.62;1701860;82;20979;-52
2022/01/20 08:00:00;;;;;;;14.45;10.18;;;;;;;6.58;48.20;101707.39;1670759;84;21007;-51
2022/01/20 08:02:29;;;;;;;16.97;9.80;;;;;;;6.63;48.36;101707.44;1698645;84;21074;-51
2022/01/20 08:04:57;;;;;;;16.70;10.25;;;;;;;6.67;48.50;101707.91;1702751;82;21105;-51
2022/01/20 08:07:23;;;;;;;16.37;9.50;;;;;;;6.70;48.62;101704.91;1699520;82;21492;-51
2022/01/20 08:09:56;;;;;;;18.17;10.35;;;;;;;6.75;48.67;101704.95;1700153;82;20968;-51
2022/01/20 08:12:21;;;;;;;16.00;9.50;;;;;;;6.79;48.60;101701.54;1693422;82;21102;-51
2022/01/20 08:14:53;;;;;;;13.80;9.75;;;;;;;6.82;48.38;101696.41;1700226;82;21499;-51
2022/01/20 08:17:22;;;;;;;18.25;10.00;;;;;;;6.85;48.05;101687.36;1698237;84;21581;-51
2022/01/20 08:19:51;;;;;;;15.80;9.35;;;;;;;6.88;47.82;101688.70;1701732;82;21559;-51
2022/01/20 08:22:17;;;;;;;19.50;9.08;;;;;;;6.91;47.64;101682.23;1700413;82;21531;-51
2022/01/20 08:24:49;;;;;;;13.50;8.10;;;;;;;6.95;47.46;101681.41;1697694;82;21536;-51
2022/01/20 08:27:13;;;;;;;12.78;9.08;;;;;;;6.98;47.53;101680.15;1694416;82;21086;-51
2022/01/20 08:29:40;;;;;;;15.80;10.28;;;;;;;7.02;47.59;101677.60;1698260;82;21444;-51
2022/01/20 08:32:07;;;;;;;15.90;9.68;;;;;;;7.08;47.45;101676.77;1698218;82;21059;-51
2022/01/20 08:34:35;;;;;;;16.25;10.18;;;;;;;7.10;47.57;101671.17;1694743;82;21042;-51
2022/01/20 08:37:10;;;;;;;15.70;9.90;;;;;;;7.15;47.68;101678.56;1619392;88;21629;-52
2022/01/20 08:42:05;;;;;;;11.85;8.78;;;;;;;7.24;47.69;101673.42;1620001;88;21071;-53
2022/01/20 08:44:32;;;;;;;12.00;8.88;;;;;;;7.29;47.65;101676.92;1616384;88;21044;-51
2022/01/20 08:47:01;;;;;;;11.48;8.20;;;;;;;7.36;47.48;101670.91;1609400;88;21044;-52
2022/01/20 08:49:27;;;;;;;15.30;8.80;;;;;;;7.39;47.46;101658.86;1623305;88;21076;-51
2022/01/20 08:51:56;;;;;;;16.05;8.60;;;;;;;7.46;47.47;101658.89;1607932;88;21093;-53
2022/01/20 08:54:25;;;;;;;16.93;9.73;;;;;;;7.51;47.47;101649.41;1615682;88;21097;-52
2022/01/20 08:56:53;;;;;;;13.93;7.67;;;;;;;7.55;47.45;101645.98;1670674;86;21591;-52
2022/01/20 08:59:20;;;;;;;11.33;7.67;;;;;;;7.61;47.49;101640.40;1674714;86;21618;-52
2022/01/20 09:01:48;;;;;;;18.20;8.88;;;;;;;7.66;47.57;101637.84;1658301;86;21057;-52
2022/01/20 09:04:14;;;;;;;15.58;8.63;;;;;;;7.70;47.70;101632.68;1674173;86;21546;-52
2022/01/20 09:06:44;;;;;;;14.23;8.30;;;;;;;7.75;47.87;101630.95;1611925;88;21103;-51
2022/01/20 09:09:14;;;;;;;13.25;7.03;;;;;;;7.79;47.48;101630.10;1672531;86;21011;-51
2022/01/20 09:11:50;;;;;;;11.90;7.28;;;;;;;7.83;47.38;101622.77;1670585;86;21065;-51
2022/01/20 09:16:55;;;;;;;15.65;7.65;;;;;;;7.90;47.23;101614.17;1738000;81;21005;-52
2022/01/20 09:19:24;;;;;;;16.42;6.37;;;;;;;7.93;47.00;101614.16;1741296;81;21352;-52
2022/01/20 09:21:52;;;;;;;14.53;7.30;;;;;;;7.97;46.80;101600.38;1697006;84;21074;-52
2022/01/20 09:24:18;;;;;;;16.10;7.62;;;;;;;7.99;46.91;101594.77;1699127;84;21056;-51
2022/01/20 09:26:46;;;;;;;14.83;7.12;;;;;;;8.02;47.26;101591.30;1699257;84;21014;-52
2022/01/20 09:29:12;;;;;;;13.98;8.23;;;;;;;8.04;47.61;101581.38;1700258;84;21053;-51
2022/01/20 09:31:39;;;;;;;15.10;7.67;;;;;;;8.08;47.88;101583.10;1700923;84;20997;-52
2022/01/20 09:34:07;;;;;;;12.88;7.40;;;;;;;8.13;48.23;101587.00;1701126;84;21010;-51
2022/01/20 09:36:37;;;;;;;17.30;7.97;;;;;;;8.16;48.53;101580.09;1734180;81;21015;-51
2022/01/20 09:39:04;;;;;;;12.75;7.35;;;;;;;8.19;48.54;101573.63;1726537;81;21491;-51
2022/01/20 09:41:35;;;;;;;15.83;8.35;;;;;;;8.25;48.41;101563.71;1688331;85;21034;-52
2022/01/20 09:44:05;;;;;;;10.40;7.20;;;;;;;8.31;47.90;101558.53;1688081;85;21006;-52
2022/01/20 09:46:33;;;;;;;13.88;7.10;;;;;;;8.37;47.66;101545.98;1667449;86;21026;-52
2022/01/20 09:49:09;;;;;;;15.23;6.85;;;;;;;8.43;47.50;101534.34;1657374;86;21591;-52
2022/01/20 09:51:39;;;;;;;14.50;7.25;;;;;;;8.47;47.25;101519.20;1667348;86;21029;-51
2022/01/20 09:54:07;;;;;;;13.62;7.17;;;;;;;8.52;47.34;101517.03;1625041;87;21048;-52
2022/01/20 09:56:39;;;;;;;14.68;6.17;;;;;;;8.54;47.27;101507.94;1623490;87;21116;-52
2022/01/20 09:59:07;;;;;;;11.70;6.17;;;;;;;8.57;47.30;101504.06;1623836;88;21126;-52
2022/01/20 10:01:50;;;;;;;11.97;6.28;;;;;;;8.60;47.29;101500.15;1578562;89;21041;-52
2022/01/20 10:04:32;;;;;;;10.40;5.55;;;;;;;8.63;47.15;101492.38;1578246;89;21064;-51
2022/01/20 10:07:11;;;;;;;12.35;5.95;;;;;;;8.66;47.06;101489.75;1567853;89;21070;-51
2022/01/20 10:09:45;;;;;;;16.85;6.28;;;;;;;8.67;46.40;101481.13;1578391;89;21075;-51
2022/01/20 10:12:29;;;;;;;13.25;6.37;;;;;;;8.70;46.26;101488.88;1578338;89;21602;-51
2022/01/20 10:15:08;;;;;;;19.50;6.60;;;;;;;8.72;46.39;101467.69;1522792;93;21111;-51
2022/01/20 10:17:47;;;;;;;9.88;6.30;;;;;;;8.74;46.55;101468.54;1519376;93;21109;-51
2022/01/20 10:20:15;;;;;;;16.85;6.83;;;;;;;8.79;46.48;101466.81;1535843;92;21728;-51
2022/01/20 10:22:56;;;;;;;15.28;7.00;;;;;;;8.80;46.52;101465.50;1468946;96;21189;-52
2022/01/20 10:25:35;;;;;;;7.95;5.70;;;;;;;8.82;46.65;101468.11;1493328;95;21114;-53
2022/01/20 10:28:03;;;;;;;15.23;6.67;;;;;;;8.84;46.62;101461.19;1493191;95;21077;-51
2022/01/20 10:30:31;;;;;;;11.40;7.10;;;;;;;8.84;46.80;101459.43;1446555;98;21093;-53
2022/01/20 10:33:00;;;;;;;10.82;5.92;;;;;;;8.86;46.87;101449.06;1417388;100;21166;-53
2022/01/20 10:35:34;;;;;;;13.98;5.95;;;;;;;8.88;46.96;101444.73;1417390;100;21620;-52
2022/01/20 10:38:13;;;;;;;19.25;6.40;;;;;;;8.89;46.85;101446.45;1412858;101;21154;-52
2022/01/20 10:40:54;;;;;;;11.03;6.22;;;;;;;8.92;47.02;101447.28;1381344;102;21138;-52
2022/01/20 10:43:25;;;;;;;12.20;6.80;;;;;;;8.96;46.79;101427.39;1381450;101;21629;-52
2022/01/20 10:46:05;;;;;;;13.38;6.47;;;;;;;9.01;46.80;101426.92;1423768;99;21146;-52
2022/01/20 10:48:32;;;;;;;12.70;6.25;;;;;;;9.02;46.85;101424.77;1423741;99;21184;-52
2022/01/20 10:51:00;;;;;;;13.75;6.95;;;;;;;9.03;46.48;101421.28;1423815;99;21108;-52
2022/01/20 10:53:26;;;;;;;15.45;6.80;;;;;;;9.02;46.46;101418.28;1455821;94;21046;-52
2022/01/20 10:56:05;;;;;;;11.88;6.37;;;;;;;9.01;46.65;101413.52;1519214;92;21054;-52
2022/01/20 10:58:34;;;;;;;12.15;6.35;;;;;;;9.03;46.44;101407.01;1526917;92;21122;-52
2022/01/20 11:01:04;;;;;;;10.45;6.70;;;;;;;9.05;46.12;101405.27;1526861;92;21050;-52
2022/01/20 11:03:33;;;;;;;16.07;6.90;;;;;;;9.07;45.97;101400.09;1533054;91;21462;-52
2022/01/20 11:06:02;;;;;;;14.30;6.95;;;;;;;9.08;45.97;101392.28;1547857;92;21091;-51
2022/01/20 11:08:31;;;;;;;15.15;6.83;;;;;;;9.10;46.02;101384.05;1499815;93;21091;-53
2022/01/20 11:10:59;;;;;;;11.33;5.37;;;;;;;9.11;45.92;101376.67;1532318;92;21076;-52
2022/01/20 11:13:31;;;;;;;12.43;6.30;;;;;;;9.13;46.19;101371.03;1491037;95;21133;-53
2022/01/20 11:15:58;;;;;;;14.03;6.70;;;;;;;9.15;46.58;101361.97;1491221;95;21590;-53
2022/01/20 11:18:28;;;;;;;13.90;6.78;;;;;;;9.17;46.79;101358.46;1491182;96;21121;-52
2022/01/20 11:20:56;;;;;;;15.55;6.53;;;;;;;9.19;46.74;101352.82;1498119;95;21126;-51
2022/01/20 11:23:24;;;;;;;14.47;6.67;;;;;;;9.23;46.56;101352.38;1497109;95;21078;-51
2022/01/20 11:26:04;;;;;;;16.05;6.40;;;;;;;9.28;46.24;101348.87;1439897;99;21611;-52
2022/01/20 11:28:59;;;;;;;14.55;6.28;;;;;;;9.31;46.17;101344.97;1423856;101;21192;-52
2022/01/20 11:31:44;;;;;;;;;;;;;;;9.35;45.80;101347.10;1423112;101;21108;-52
2022/01/20 11:34:20;;;;;;;13.93;6.00;;;;;;;9.39;45.37;101350.97;1383471;103;20167;-52
2022/01/20 11:36:48;;;;;;;13.10;6.28;;;;;;;9.40;44.98;101353.98;1409655;98;21102;-51
2022/01/20 11:39:18;;;;;;;10.82;6.03;;;;;;;9.41;45.18;101349.22;1444503;98;21061;-51
2022/01/20 11:41:48;;;;;;;12.90;6.45;;;;;;;9.44;45.17;101350.91;1443856;98;21074;-51
2022/01/20 11:44:18;;;;;;;16.93;7.17;;;;;;;9.45;44.98;101343.13;1446836;98;21099;-51
2022/01/20 11:46:49;;;;;;;13.28;6.58;;;;;;;9.47;45.11;101334.02;1452604;97;21186;-51
2022/01/20 11:49:21;;;;;;;18.50;6.40;;;;;;;9.47;45.19;101323.20;1461835;97;21105;-52
2022/01/20 11:51:58;;;;;;;10.55;5.85;;;;;;;9.50;45.29;101308.86;1507094;94;21186;-51
2022/01/20 11:54:34;;;;;;;11.20;5.87;;;;;;;9.49;45.56;101303.27;1514488;94;21490;-52
2022/01/20 11:57:20;;;;;;;14.20;6.17;;;;;;;9.52;45.62;101297.19;1483635;95;21069;-51
2022/01/20 11:59:55;;;;;;;15.03;6.60;;;;;;;9.52;45.48;101288.93;1485549;95;21081;-52
2022/01/20 12:02:33;;;;;;;11.38;5.87;;;;;;;9.55;45.67;101288.92;1487181;95;21689;-52
2022/01/20 12:05:03;;;;;;;13.58;5.85;;;;;;;9.59;45.45;101294.51;1484694;95;21506;-52
2022/01/20 12:07:45;;;;;;;15.05;5.95;;;;;;;9.64;45.25;101282.78;1487146;96;21081;-50
2022/01/20 12:10:19;;;;;;;10.45;5.85;;;;;;;9.66;45.42;101278.00;1487024;95;21158;-52
2022/01/20 12:12:46;;;;;;;11.45;6.60;;;;;;;9.66;45.36;101280.59;1567710;90;21132;-51
2022/01/20 12:15:15;;;;;;;16.50;6.65;;;;;;;9.67;45.31;101270.61;1553105;91;21606;-50
2022/01/20 12:17:54;;;;;;;9.90;5.50;;;;;;;9.68;45.43;101267.58;1552656;91;21061;-51
2022/01/20 12:20:23;;;;;;;14.47;5.85;;;;;;;9.69;45.23;101266.69;1528732;93;21114;-51
2022/01/20 12:22:50;;;;;;;11.83;5.95;;;;;;;9.69;45.13;101262.36;1576987;90;21052;-51
2022/01/20 12:25:21;;;;;;;13.30;5.78;;;;;;;9.70;45.09;101252.41;1591130;90;21091;-51
2022/01/20 12:27:47;;;;;;;10.35;5.85;;;;;;;9.71;45.22;101252.81;1591033;90;21061;-51
2022/01/20 12:30:25;;;;;;;9.30;5.30;;;;;;;9.72;45.46;101244.16;1591088;90;21016;-51
2022/01/20 12:33:06;;;;;;;44.45;8.48;;;;;;;9.73;45.31;101243.26;1597817;89;21067;-51
2022/01/20 12:35:42;;;;;;;13.62;5.85;;;;;;;9.75;44.88;101241.50;1590933;90;21084;-51
2022/01/20 12:38:26;;;;;;;12.65;6.03;;;;;;;9.77;44.19;101241.48;1593470;89;21077;-51
2022/01/20 12:41:08;;;;;;;14.05;6.80;;;;;;;9.76;43.38;101225.05;1593657;89;21037;-51
2022/01/20 12:43:45;;;;;;;11.18;5.75;;;;;;;9.75;42.52;101225.91;1610410;87;21112;-51
2022/01/20 12:46:16;;;;;;;15.18;5.87;;;;;;;9.75;42.38;101220.72;1630071;86;21177;-50
2022/01/20 12:49:05;;;;;;;16.42;6.35;;;;;;;9.76;42.26;101231.55;1661445;86;21116;-51